Mount Union, Ohio
Current Conditions -  °F | °C
As of 6:51 AM on Sunday 21 Dec 2014 (Local Time) from KCAK Reporting Station
Haze Haze  
Wind Chill: 28°   Ceiling: 2400
Heat Index: 28°   Visibility: 6mi
Dew Point: 23°   Wind: 0mph
Humidity: 81%   Direction: NA
Pressure: 30.3"   Gusts: NA
Location:  40.9181°N, 81.1273°W
Report Text: KCAK 211151Z 00000KT 6SM HZ OVC024 M02/M05 A3030 RMK AO2 SLP275 T10221050 11017 21033 53006
Loading
Personal Weather Stations






























Interactive Weather Map New forecast layout! Learn more

10-Day Weather Forecast

Advertisements
Track Severe Weather on mobile